Time;durP1;ratioP1;P1;durP2;ratioP2;P2;SDS_P1;SDS_P2;PMS_P1;PMS_P2;Temp;Humidity;BMP_temperature;BMP_pressure;BME280_temperature;BME280_humidity;BME280_pressure;Samples;Min_cycle;Max_cycle;Signal;HPM_P1;HPM_P2
2021/06/20 00:00:31;;;;;;;2.89;0.79;;;;;;;21.50;48.39;101022.77;455156;115;932610;-66
2021/06/20 00:01:35;;;;;;;2.81;0.93;;;;;;;21.48;48.42;101023.03;451905;115;923934;-68
2021/06/20 00:02:39;;;;;;;2.54;1.04;;;;;;;21.47;48.32;101029.69;452426;115;926562;-68
2021/06/20 00:03:43;;;;;;;1.81;0.98;;;;;;;21.46;48.45;101024.41;450963;115;932248;-68
2021/06/20 00:04:46;;;;;;;3.35;0.92;;;;;;;21.44;48.44;101024.70;451236;115;924041;-67
2021/06/20 00:05:58;;;;;;;2.56;0.97;;;;;;;21.44;48.46;101021.09;457309;115;931677;-67
2021/06/20 00:07:02;;;;;;;2.95;0.99;;;;;;;21.43;48.42;101030.52;456550;115;923822;-69
2021/06/20 00:08:10;;;;;;;3.53;1.06;;;;;;;21.42;48.55;101023.30;452631;115;925510;-67
2021/06/20 00:09:13;;;;;;;1.09;0.87;;;;;;;21.41;48.49;101016.08;457151;115;925177;-69
2021/06/20 00:10:21;;;;;;;5.57;1.32;;;;;;;21.41;48.72;101021.62;454057;115;924456;-66
2021/06/20 00:11:27;;;;;;;2.46;1.03;;;;;;;21.39;48.57;101018.32;455858;115;924163;-68
2021/06/20 00:12:30;;;;;;;4.70;1.01;;;;;;;21.38;48.65;101022.20;456140;115;924056;-69
2021/06/20 00:13:34;;;;;;;2.95;1.01;;;;;;;21.37;48.77;101023.30;450603;115;923945;-68
2021/06/20 00:14:37;;;;;;;2.89;1.26;;;;;;;21.36;48.75;101029.95;452717;115;924759;-69
2021/06/20 00:15:42;;;;;;;2.30;1.02;;;;;;;21.35;48.83;101031.89;450588;115;926255;-67
2021/06/20 00:16:46;;;;;;;5.33;1.14;;;;;;;21.35;48.85;101029.11;450618;115;924050;-68
2021/06/20 00:17:50;;;;;;;3.79;0.94;;;;;;;21.34;48.88;101032.98;450540;115;925297;-68
2021/06/20 00:18:54;;;;;;;5.09;1.08;;;;;;;21.33;48.82;101034.13;450152;115;931779;-68
2021/06/20 00:19:57;;;;;;;2.17;0.92;;;;;;;21.32;48.97;101035.23;452929;115;924150;-68
2021/06/20 00:21:01;;;;;;;5.91;1.01;;;;;;;21.33;48.92;101034.13;458136;115;924103;-68
2021/06/20 00:22:05;;;;;;;4.26;1.21;;;;;;;21.32;48.83;101034.39;456807;114;924079;-68
2021/06/20 00:23:09;;;;;;;4.42;0.89;;;;;;;21.31;48.83;101027.17;455070;114;924534;-68
2021/06/20 00:24:12;;;;;;;3.29;0.89;;;;;;;21.30;48.91;101028.27;458138;114;924347;-67
2021/06/20 00:25:16;;;;;;;2.88;1.23;;;;;;;21.29;48.96;101032.15;458383;114;924106;-68
2021/06/20 00:26:21;;;;;;;3.31;1.13;;;;;;;21.29;48.94;101023.83;458637;114;931443;-69
2021/06/20 00:27:25;;;;;;;2.04;1.11;;;;;;;21.26;48.92;101030.77;457425;114;924053;-68
2021/06/20 00:28:29;;;;;;;1.61;0.71;;;;;;;21.26;48.96;101021.62;457790;114;924816;-68
2021/06/20 00:29:32;;;;;;;3.85;0.85;;;;;;;21.24;48.97;101024.66;456846;114;931751;-69
2021/06/20 00:30:37;;;;;;;3.76;1.06;;;;;;;21.23;49.00;101020.21;458727;114;922690;-68
2021/06/20 00:31:41;;;;;;;4.36;1.00;;;;;;;21.23;49.12;101015.50;457634;114;922843;-68
2021/06/20 00:32:46;;;;;;;3.53;1.38;;;;;;;21.23;48.99;101016.64;456974;114;922640;-68
2021/06/20 00:33:49;;;;;;;3.64;1.15;;;;;;;21.23;48.98;101019.41;458732;114;930162;-68
2021/06/20 00:34:53;;;;;;;2.53;1.12;;;;;;;21.21;48.97;101009.41;457894;114;922424;-70
2021/06/20 00:35:58;;;;;;;2.20;0.84;;;;;;;21.21;48.97;101023.28;458721;114;922773;-69
2021/06/20 00:37:04;;;;;;;2.86;0.83;;;;;;;21.20;49.10;101016.06;458758;114;922980;-68
2021/06/20 00:38:07;;;;;;;1.37;0.83;;;;;;;21.20;49.07;101016.06;456758;114;922427;-68
2021/06/20 00:39:10;;;;;;;2.36;1.07;;;;;;;21.21;49.00;101012.19;457986;114;922926;-68
2021/06/20 00:40:16;;;;;;;3.84;1.19;;;;;;;21.21;48.92;101011.36;457969;114;930323;-67
2021/06/20 00:41:19;;;;;;;4.62;1.19;;;;;;;21.19;48.91;101008.84;455631;114;922778;-68
2021/06/20 00:42:23;;;;;;;2.62;1.02;;;;;;;21.18;48.73;101012.72;456014;114;922521;-68
2021/06/20 00:43:27;;;;;;;5.40;1.44;;;;;;;21.17;48.69;101022.14;455739;114;922577;-68
2021/06/20 00:44:30;;;;;;;4.33;1.22;;;;;;;21.15;48.69;101015.22;458268;114;922569;-68
2021/06/20 00:45:34;;;;;;;1.71;1.06;;;;;;;21.13;48.71;101018.23;455176;113;932088;-67
2021/06/20 00:46:38;;;;;;;1.96;0.99;;;;;;;21.11;48.78;101020.46;459539;114;924147;-67
2021/06/20 00:47:41;;;;;;;2.66;1.11;;;;;;;21.11;48.81;101012.14;457806;114;934776;-68
2021/06/20 00:48:45;;;;;;;3.39;1.05;;;;;;;21.11;48.74;101014.92;458513;114;926682;-68
2021/06/20 00:49:48;;;;;;;1.46;0.79;;;;;;;21.10;48.79;101018.79;457993;114;932492;-68
2021/06/20 00:50:52;;;;;;;4.42;1.42;;;;;;;21.10;48.76;101015.18;458086;114;922967;-68
2021/06/20 00:51:56;;;;;;;2.63;0.99;;;;;;;21.08;48.63;101015.45;455540;114;925688;-68
2021/06/20 00:53:01;;;;;;;6.89;1.00;;;;;;;21.08;48.58;101009.06;458202;114;931799;-68
2021/06/20 00:54:05;;;;;;;4.96;1.11;;;;;;;21.07;48.58;101016.55;458604;114;931635;-67
2021/06/20 00:55:10;;;;;;;4.20;1.32;;;;;;;21.06;48.56;101014.88;456349;114;927035;-68
2021/06/20 00:56:15;;;;;;;3.34;0.96;;;;;;;21.05;48.56;101009.63;456661;114;924113;-67
2021/06/20 00:57:21;;;;;;;6.61;1.12;;;;;;;21.05;48.71;101004.92;457385;113;926207;-70
2021/06/20 00:58:25;;;;;;;6.56;2.28;;;;;;;21.04;48.73;101010.73;456263;114;924024;-69
2021/06/20 00:59:29;;;;;;;4.26;1.20;;;;;;;21.03;48.64;101004.34;456714;114;924110;-69
2021/06/20 01:00:36;;;;;;;3.21;1.88;;;;;;;21.02;48.59;101008.22;455965;113;924535;-68
2021/06/20 01:01:40;;;;;;;3.81;1.66;;;;;;;21.02;48.57;101001.84;459586;114;923974;-68
2021/06/20 01:02:46;;;;;;;2.19;0.94;;;;;;;21.01;48.47;101008.48;451916;115;924080;-66
2021/06/20 01:03:49;;;;;;;2.74;1.02;;;;;;;20.99;48.45;101007.95;455245;114;931704;-68
2021/06/20 01:04:55;;;;;;;3.84;0.91;;;;;;;20.98;48.54;101009.05;457358;114;924101;-67
2021/06/20 01:06:00;;;;;;;4.84;1.03;;;;;;;20.97;48.57;101001.83;456490;114;931705;-65
2021/06/20 01:07:04;;;;;;;3.92;1.44;;;;;;;20.96;48.63;101003.77;456344;114;924337;-67
2021/06/20 01:08:10;;;;;;;9.86;1.37;;;;;;;20.96;48.65;101012.09;456189;114;923673;-69
2021/06/20 01:09:15;;;;;;;5.17;1.04;;;;;;;20.95;48.63;101001.30;458023;114;932189;-66
2021/06/20 01:10:23;;;;;;;3.89;0.81;;;;;;;20.96;48.55;101003.77;459489;114;924489;-68
2021/06/20 01:11:27;;;;;;;3.39;0.99;;;;;;;20.94;48.49;101010.70;456516;114;924558;-65
2021/06/20 01:12:30;;;;;;;5.98;1.01;;;;;;;20.93;48.55;101009.87;455080;114;926685;-68
2021/06/20 01:13:34;;;;;;;1.98;1.01;;;;;;;20.93;48.51;101014.58;458095;114;923999;-66
2021/06/20 01:14:38;;;;;;;3.42;1.29;;;;;;;20.91;48.56;101014.01;456437;114;925555;-68
2021/06/20 01:15:44;;;;;;;4.00;0.79;;;;;;;20.89;48.59;101019.84;457743;114;931708;-68
2021/06/20 01:16:51;;;;;;;4.24;1.66;;;;;;;20.89;48.48;101010.70;457492;114;922769;-69
2021/06/20 01:17:55;;;;;;;3.20;0.92;;;;;;;20.88;48.47;101020.11;456849;114;922590;-66
2021/06/20 01:18:58;;;;;;;7.12;0.90;;;;;;;20.87;48.54;101013.73;456509;114;922892;-68
2021/06/20 01:20:09;;;;;;;3.08;1.01;;;;;;;20.87;48.55;101019.27;458239;113;922573;-69
2021/06/20 01:21:13;;;;;;;4.03;1.30;;;;;;;20.87;48.46;101012.89;456614;114;922594;-69
2021/06/20 01:22:25;;;;;;;4.61;0.99;;;;;;;20.87;48.31;101022.05;454301;114;930407;-68
2021/06/20 01:23:29;;;;;;;2.98;1.02;;;;;;;20.86;48.39;101020.37;452659;115;922508;-68
2021/06/20 01:24:32;;;;;;;4.04;1.04;;;;;;;20.86;48.30;101017.60;453799;115;923019;-66
2021/06/20 01:25:39;;;;;;;1.72;1.02;;;;;;;20.85;48.19;101021.47;453846;115;930203;-66
2021/06/20 01:26:43;;;;;;;3.83;1.07;;;;;;;20.84;48.20;101017.03;453215;115;930235;-67
2021/06/20 01:27:53;;;;;;;6.26;1.42;;;;;;;20.81;48.28;101018.42;452154;115;922816;-67
2021/06/20 01:29:04;;;;;;;5.36;1.51;;;;;;;20.82;48.44;101019.27;453911;115;930341;-69
2021/06/20 01:30:14;;;;;;;6.05;1.82;;;;;;;20.82;48.21;101013.72;444145;118;922535;-66
2021/06/20 01:31:18;;;;;;;3.39;1.16;;;;;;;20.81;48.15;101018.42;440373;118;922466;-67
2021/06/20 01:32:22;;;;;;;4.56;1.98;;;;;;;20.81;48.06;101023.13;447548;118;922850;-68
2021/06/20 01:33:27;;;;;;;1.71;0.81;;;;;;;20.81;48.06;101023.13;442568;118;930231;-67
2021/06/20 01:34:31;;;;;;;3.05;1.09;;;;;;;20.80;48.06;101024.23;446735;116;925763;-66
2021/06/20 01:35:35;;;;;;;2.32;0.96;;;;;;;20.80;48.08;101029.77;447674;118;931728;-66
2021/06/20 01:36:39;;;;;;;3.04;0.76;;;;;;;20.77;47.97;101028.39;445743;118;925225;-64
2021/06/20 01:37:43;;;;;;;3.44;0.84;;;;;;;20.77;48.00;101024.79;448391;118;926047;-68
2021/06/20 01:38:47;;;;;;;2.62;0.91;;;;;;;20.77;47.77;101027.56;448102;118;925422;-68
2021/06/20 01:39:51;;;;;;;2.15;1.09;;;;;;;20.76;47.72;101028.66;443691;118;926293;-66
2021/06/20 01:40:55;;;;;;;3.37;1.16;;;;;;;20.75;47.74;101033.37;442802;118;931914;-69
2021/06/20 01:41:59;;;;;;;4.88;1.24;;;;;;;20.74;47.75;101031.70;443932;118;924041;-68
2021/06/20 01:43:03;;;;;;;3.27;0.86;;;;;;;20.75;47.78;101026.98;443267;118;927159;-68
2021/06/20 01:44:06;;;;;;;3.65;1.12;;;;;;;20.74;47.79;101030.86;446246;118;932488;-68
2021/06/20 01:45:12;;;;;;;2.49;1.12;;;;;;;20.74;47.71;101028.09;442287;118;924017;-68
2021/06/20 01:46:17;;;;;;;5.28;0.86;;;;;;;20.73;47.71;101031.98;444374;116;931724;-67
2021/06/20 01:47:26;;;;;;;2.17;0.71;;;;;;;20.73;47.79;101034.76;443416;118;924045;-66
2021/06/20 01:48:30;;;;;;;1.49;0.67;;;;;;;20.72;47.78;101033.09;443689;118;924056;-69
2021/06/20 01:49:33;;;;;;;2.44;0.88;;;;;;;20.72;47.77;101036.69;445014;118;924164;-66
2021/06/20 01:50:38;;;;;;;2.99;0.94;;;;;;;20.72;47.82;101033.92;443354;116;925631;-68
2021/06/20 01:51:45;;;;;;;2.09;1.09;;;;;;;20.73;47.98;101034.76;443664;117;932603;-66
2021/06/20 01:53:01;;;;;;;1.79;0.81;;;;;;;20.73;47.96;101030.02;442363;118;932692;-68
2021/06/20 01:54:05;;;;;;;1.91;0.88;;;;;;;20.72;47.78;101033.92;435088;117;926284;-66
2021/06/20 01:55:12;;;;;;;4.09;1.04;;;;;;;20.72;47.77;101036.69;447356;118;924019;-65
2021/06/20 01:56:16;;;;;;;2.76;0.86;;;;;;;20.70;47.80;101036.12;445320;118;925921;-69
2021/06/20 01:57:25;;;;;;;3.74;1.82;;;;;;;20.70;47.82;101032.52;445856;118;924063;-67
2021/06/20 01:58:29;;;;;;;2.43;1.68;;;;;;;20.70;47.79;101036.12;445576;118;924034;-64
2021/06/20 01:59:32;;;;;;;4.71;2.85;;;;;;;20.69;47.94;101037.22;446337;118;924083;-66
2021/06/20 02:00:40;;;;;;;5.53;1.52;;;;;;;20.68;47.94;101031.94;445675;118;932108;-68
2021/06/20 02:01:43;;;;;;;4.42;1.09;;;;;;;20.67;47.90;101033.91;449515;115;925213;-66
2021/06/20 02:02:47;;;;;;;3.08;1.49;;;;;;;20.67;47.93;101033.06;452816;115;924021;-67
2021/06/20 02:03:51;;;;;;;4.93;1.04;;;;;;;20.67;47.88;101038.61;453361;115;927553;-67
2021/06/20 02:04:57;;;;;;;3.33;1.07;;;;;;;20.65;47.76;101033.33;455343;113;924069;-67
2021/06/20 02:06:01;;;;;;;3.25;1.01;;;;;;;20.64;47.77;101030.82;453640;115;924099;-66
2021/06/20 02:07:07;;;;;;;4.80;1.16;;;;;;;20.64;47.82;101028.05;453851;115;926122;-68
2021/06/20 02:08:12;;;;;;;2.63;1.23;;;;;;;20.64;47.70;101030.82;451512;115;925848;-66
2021/06/20 02:09:15;;;;;;;2.41;1.15;;;;;;;20.63;47.77;101032.75;448642;117;922635;-67
2021/06/20 02:10:20;;;;;;;1.98;1.06;;;;;;;20.64;47.75;101030.82;448549;116;922625;-68
2021/06/20 02:11:24;;;;;;;2.26;1.07;;;;;;;20.62;47.88;101031.08;451389;115;924518;-67
2021/06/20 02:12:28;;;;;;;3.85;1.24;;;;;;;20.65;47.96;101032.49;447985;117;924147;-67
2021/06/20 02:13:31;;;;;;;4.71;1.41;;;;;;;20.65;48.03;101033.33;449033;115;924057;-68
2021/06/20 02:14:37;;;;;;;3.76;1.13;;;;;;;20.66;47.95;101031.39;452637;113;931752;-67
2021/06/20 02:15:41;;;;;;;2.95;0.90;;;;;;;20.66;47.75;101035.00;447429;116;930304;-68
2021/06/20 02:16:46;;;;;;;3.07;0.92;;;;;;;20.66;47.84;101026.69;442267;119;922576;-68
2021/06/20 02:17:50;;;;;;;4.45;0.81;;;;;;;20.67;47.91;101030.30;446358;118;930104;-68
2021/06/20 02:18:54;;;;;;;8.97;1.68;;;;;;;20.67;47.81;101027.52;444638;118;922971;-68
2021/06/20 02:20:09;;;;;;;3.06;1.02;;;;;;;20.67;47.69;101033.06;447685;118;922502;-68
2021/06/20 02:21:13;;;;;;;4.27;1.02;;;;;;;20.66;47.85;101031.39;445805;118;930201;-69
2021/06/20 02:22:16;;;;;;;3.15;0.96;;;;;;;20.66;47.98;101025.85;440299;119;922973;-68
2021/06/20 02:23:20;;;;;;;4.04;0.79;;;;;;;20.66;48.04;101031.39;446501;118;930149;-69
2021/06/20 02:24:24;;;;;;;5.19;1.12;;;;;;;20.66;47.93;101032.23;444335;118;930183;-67
2021/06/20 02:25:28;;;;;;;10.34;1.27;;;;;;;20.68;47.93;101031.94;443602;118;923008;-67
2021/06/20 02:26:32;;;;;;;1.93;0.88;;;;;;;20.69;48.10;101030.84;446471;118;922987;-68
2021/06/20 02:27:35;;;;;;;1.01;0.78;;;;;;;20.71;48.28;101037.80;445656;118;927011;-68
2021/06/20 02:28:39;;;;;;;3.96;0.92;;;;;;;20.72;48.19;101041.40;446211;118;924075;-68
2021/06/20 02:29:44;;;;;;;3.39;0.91;;;;;;;20.72;47.96;101036.69;443345;118;924041;-67
2021/06/20 02:30:48;;;;;;;3.71;1.06;;;;;;;20.74;47.95;101041.94;442517;118;924138;-68
2021/06/20 02:31:52;;;;;;;5.02;0.92;;;;;;;20.73;47.90;101046.64;446732;118;924076;-69
2021/06/20 02:32:56;;;;;;;2.30;0.94;;;;;;;20.74;47.97;101039.17;446851;118;924718;-69
2021/06/20 02:33:59;;;;;;;3.24;0.92;;;;;;;20.75;48.05;101040.84;445328;118;924033;-68
2021/06/20 02:35:05;;;;;;;2.46;1.35;;;;;;;20.76;47.99;101037.81;444054;118;925910;-68
2021/06/20 02:36:08;;;;;;;3.32;1.04;;;;;;;20.77;47.83;101033.10;445790;117;922444;-69
2021/06/20 02:37:14;;;;;;;3.72;1.02;;;;;;;20.77;47.67;101038.64;439923;119;924202;-66
2021/06/20 02:38:17;;;;;;;3.53;1.05;;;;;;;20.76;47.59;101037.81;439578;119;924586;-66
2021/06/20 02:39:21;;;;;;;3.21;0.98;;;;;;;20.75;47.68;101036.14;443047;118;924055;-67
2021/06/20 02:40:25;;;;;;;1.82;0.83;;;;;;;20.76;47.85;101036.97;448052;116;932420;-67
2021/06/20 02:41:28;;;;;;;4.15;1.05;;;;;;;20.76;47.97;101036.97;447546;116;924461;-67
2021/06/20 02:42:32;;;;;;;2.89;1.20;;;;;;;20.76;47.93;101043.35;446990;116;932449;-67
2021/06/20 02:43:35;;;;;;;1.25;0.94;;;;;;;20.75;47.95;101033.37;446521;116;933024;-67
2021/06/20 02:44:40;;;;;;;3.94;0.91;;;;;;;20.75;48.11;101033.37;448620;116;924576;-67
2021/06/20 02:45:43;;;;;;;2.33;1.29;;;;;;;20.75;48.03;101035.30;447143;116;931756;-68
2021/06/20 02:46:47;;;;;;;3.68;1.56;;;;;;;20.74;47.95;101033.63;449282;116;923888;-69
2021/06/20 02:47:52;;;;;;;2.28;1.46;;;;;;;20.74;47.90;101025.31;447575;116;926205;-67
2021/06/20 02:48:56;;;;;;;3.05;1.29;;;;;;;20.74;47.90;101026.15;447516;116;932454;-67
2021/06/20 02:49:59;;;;;;;2.88;1.29;;;;;;;20.73;47.93;101024.48;448654;116;924518;-66
2021/06/20 02:51:04;;;;;;;2.87;1.06;;;;;;;20.74;48.16;101025.31;449092;116;932974;-66
2021/06/20 02:52:11;;;;;;;1.68;0.96;;;;;;;20.73;48.15;101018.94;449073;116;924249;-67
2021/06/20 02:53:15;;;;;;;1.51;0.94;;;;;;;20.75;48.15;101018.67;446443;116;924087;-68
2021/06/20 02:54:21;;;;;;;4.62;1.36;;;;;;;20.76;48.00;101015.64;450155;116;926226;-66
2021/06/20 02:55:24;;;;;;;1.02;0.78;;;;;;;20.77;47.93;101013.70;448179;116;932343;-67
2021/06/20 02:56:28;;;;;;;2.38;1.16;;;;;;;20.77;47.87;101019.25;449287;116;923988;-67
2021/06/20 02:57:32;;;;;;;2.59;0.82;;;;;;;20.77;47.87;101019.25;448286;116;923631;-64
2021/06/20 02:58:36;;;;;;;5.49;1.13;;;;;;;20.76;48.03;101012.87;447611;116;923150;-67
2021/06/20 02:59:40;;;;;;;2.46;0.79;;;;;;;20.76;48.08;101023.95;448177;116;924081;-65
2021/06/20 03:00:43;;;;;;;4.13;1.18;;;;;;;20.77;48.05;101033.10;441115;119;924211;-66
2021/06/20 03:01:46;;;;;;;1.87;1.12;;;;;;;20.76;48.13;101031.43;452768;114;924142;-67
2021/06/20 03:02:50;;;;;;;3.01;0.82;;;;;;;20.76;48.19;101023.95;456495;114;924031;-67
2021/06/20 03:03:54;;;;;;;3.85;1.00;;;;;;;20.76;48.14;101025.89;458210;114;926711;-68
2021/06/20 03:04:58;;;;;;;1.44;0.80;;;;;;;20.76;48.29;101037.81;458382;114;926819;-68
2021/06/20 03:06:03;;;;;;;4.17;1.44;;;;;;;20.77;48.47;101030.33;456880;114;923054;-67
2021/06/20 03:07:07;;;;;;;3.02;1.06;;;;;;;20.77;48.32;101033.94;457056;114;922363;-67
2021/06/20 03:08:10;;;;;;;1.73;0.96;;;;;;;20.77;48.08;101033.10;457982;114;922517;-69
2021/06/20 03:09:14;;;;;;;2.29;1.05;;;;;;;20.78;48.05;101037.55;457068;114;922496;-68
2021/06/20 03:10:19;;;;;;;2.55;1.13;;;;;;;20.78;48.11;101034.77;459439;114;923595;-68
2021/06/20 03:11:22;;;;;;;3.17;1.15;;;;;;;20.77;48.11;101036.70;457645;114;930191;-67
2021/06/20 03:12:26;;;;;;;4.03;1.12;;;;;;;20.77;48.13;101038.64;459486;114;922613;-66
2021/06/20 03:13:30;;;;;;;4.04;1.20;;;;;;;20.76;48.19;101037.81;458709;114;922612;-67
2021/06/20 03:14:34;;;;;;;3.15;1.00;;;;;;;20.77;48.18;101041.42;457756;114;922481;-67
2021/06/20 03:15:39;;;;;;;4.34;1.11;;;;;;;20.76;48.28;101040.58;458195;114;930154;-66
2021/06/20 03:16:44;;;;;;;2.53;1.16;;;;;;;20.75;48.33;101036.14;457705;114;922446;-69
2021/06/20 03:17:48;;;;;;;1.46;0.74;;;;;;;20.75;48.43;101036.14;457704;114;922852;-68
2021/06/20 03:18:51;;;;;;;3.39;1.02;;;;;;;20.76;48.78;101037.81;456897;114;924021;-67
2021/06/20 03:19:55;;;;;;;2.07;0.91;;;;;;;20.77;48.84;101038.64;457923;114;926154;-68
2021/06/20 03:20:59;;;;;;;2.29;0.95;;;;;;;20.75;48.73;101035.30;457963;114;931669;-67
2021/06/20 03:22:04;;;;;;;2.33;1.06;;;;;;;20.75;48.65;101041.68;457786;114;924115;-67
2021/06/20 03:23:10;;;;;;;2.76;0.96;;;;;;;20.76;48.58;101039.75;457627;114;932836;-65
2021/06/20 03:24:15;;;;;;;2.36;0.91;;;;;;;20.75;48.58;101033.37;460953;114;924507;-67
2021/06/20 03:25:18;;;;;;;2.64;1.11;;;;;;;20.75;48.57;101036.14;458195;114;931694;-67
2021/06/20 03:26:23;;;;;;;2.32;0.95;;;;;;;20.76;48.64;101031.43;459942;114;923823;-67
2021/06/20 03:27:26;;;;;;;2.84;1.08;;;;;;;20.77;48.77;101044.19;460258;114;932726;-67
2021/06/20 03:28:30;;;;;;;2.61;0.81;;;;;;;20.77;48.68;101038.64;458325;113;932418;-66
2021/06/20 03:29:34;;;;;;;3.92;1.26;;;;;;;20.77;48.72;101033.10;461548;114;932136;-67
2021/06/20 03:30:40;;;;;;;3.12;0.94;;;;;;;20.78;48.76;101035.58;460957;114;932913;-67
2021/06/20 03:31:44;;;;;;;3.05;0.94;;;;;;;20.79;48.67;101033.64;458521;114;924522;-68
2021/06/20 03:32:48;;;;;;;3.93;1.07;;;;;;;20.79;48.66;101034.48;460047;114;933032;-68
2021/06/20 03:33:51;;;;;;;3.02;0.86;;;;;;;20.80;48.58;101029.77;459346;114;932442;-68
2021/06/20 03:34:55;;;;;;;7.17;1.16;;;;;;;20.80;48.64;101033.38;461465;114;931521;-68
2021/06/20 03:35:58;;;;;;;3.20;1.10;;;;;;;20.81;48.73;101039.77;462078;114;931908;-67
2021/06/20 03:37:04;;;;;;;6.11;1.06;;;;;;;20.82;48.79;101035.89;460967;114;931829;-64
2021/06/20 03:38:08;;;;;;;2.89;0.97;;;;;;;20.83;48.76;101022.87;460743;113;924041;-67
2021/06/20 03:39:12;;;;;;;5.12;1.24;;;;;;;20.84;48.52;101033.66;461127;114;924086;-67
2021/06/20 03:40:16;;;;;;;5.48;0.96;;;;;;;20.85;48.50;101026.19;462692;114;922848;-66
2021/06/20 03:41:20;;;;;;;3.61;1.04;;;;;;;20.85;48.56;101024.25;462289;114;924025;-68
2021/06/20 03:42:24;;;;;;;8.48;0.92;;;;;;;20.86;48.52;101023.15;461467;114;924071;-69
2021/06/20 03:43:28;;;;;;;5.76;0.92;;;;;;;20.87;48.54;101016.50;459293;114;924079;-65
2021/06/20 03:44:32;;;;;;;4.16;1.51;;;;;;;20.90;48.42;101027.03;460865;114;924486;-66
2021/06/20 03:45:36;;;;;;;2.85;0.93;;;;;;;20.91;48.46;101027.87;453815;116;924765;-67
2021/06/20 03:46:41;;;;;;;5.21;1.24;;;;;;;20.93;48.68;101025.67;453665;114;924579;-65
2021/06/20 03:47:45;;;;;;;5.21;0.81;;;;;;;20.95;48.68;101029.81;458553;114;926282;-68
2021/06/20 03:48:49;;;;;;;2.43;0.90;;;;;;;20.96;48.31;101031.48;462512;114;923999;-67
2021/06/20 03:49:52;;;;;;;5.19;1.16;;;;;;;20.97;48.24;101030.39;461032;114;925390;-64
2021/06/20 03:50:56;;;;;;;2.84;0.80;;;;;;;20.99;48.20;101024.58;460495;114;923993;-67
2021/06/20 03:52:00;;;;;;;5.58;1.19;;;;;;;20.99;48.21;101030.96;459655;114;924966;-66
2021/06/20 03:53:04;;;;;;;1.91;0.64;;;;;;;21.02;48.10;101035.11;454599;116;931752;-68
2021/06/20 03:54:07;;;;;;;5.21;0.80;;;;;;;21.02;47.96;101041.48;455511;114;922542;-67
2021/06/20 03:55:12;;;;;;;3.77;0.85;;;;;;;21.03;48.12;101026.53;460255;114;932328;-67
2021/06/20 03:56:15;;;;;;;1.06;0.84;;;;;;;21.04;47.98;101028.20;459705;114;923638;-65
2021/06/20 03:57:21;;;;;;;3.35;0.82;;;;;;;21.05;48.11;101027.09;460001;114;924434;-68
2021/06/20 03:58:25;;;;;;;5.03;1.04;;;;;;;21.07;48.20;101030.41;460983;114;922511;-67
2021/06/20 03:59:29;;;;;;;4.16;0.96;;;;;;;21.08;48.25;101034.86;461500;114;922817;-67
2021/06/20 04:00:35;;;;;;;2.72;1.04;;;;;;;21.09;47.82;101030.98;458157;114;922456;-67
2021/06/20 04:01:39;;;;;;;3.80;0.89;;;;;;;21.10;47.76;101031.82;458871;114;926953;-65
2021/06/20 04:02:42;;;;;;;4.49;1.06;;;;;;;21.09;47.72;101030.98;461095;114;924398;-68
2021/06/20 04:03:46;;;;;;;5.38;1.08;;;;;;;21.10;47.58;101026.27;460248;114;924059;-68
2021/06/20 04:04:49;;;;;;;3.59;1.04;;;;;;;21.10;47.57;101034.59;460706;114;931800;-69
2021/06/20 04:05:53;;;;;;;2.61;1.10;;;;;;;21.09;47.60;101025.44;459066;113;924081;-66
2021/06/20 04:06:56;;;;;;;3.24;0.81;;;;;;;21.10;47.65;101029.05;460034;114;933229;-66
2021/06/20 04:08:00;;;;;;;3.60;1.06;;;;;;;21.10;47.59;101031.82;460439;114;925405;-67
2021/06/20 04:09:04;;;;;;;4.57;0.96;;;;;;;21.11;47.79;101030.72;459141;114;924092;-66
2021/06/20 04:10:10;;;;;;;4.34;1.16;;;;;;;21.10;47.99;101024.34;459735;114;923024;-67
2021/06/20 04:11:13;;;;;;;8.33;1.16;;;;;;;21.11;47.94;101023.23;461196;114;922559;-68
2021/06/20 04:12:17;;;;;;;6.45;1.07;;;;;;;21.13;47.90;101026.55;461755;114;924043;-66
2021/06/20 04:13:20;;;;;;;2.24;1.04;;;;;;;21.16;47.88;101026.05;453913;116;924063;-68
2021/06/20 04:14:24;;;;;;;4.09;1.13;;;;;;;21.17;47.70;101027.69;453493;114;924097;-66
2021/06/20 04:15:28;;;;;;;5.33;0.81;;;;;;;21.18;47.61;101021.05;460720;114;924037;-65
2021/06/20 04:16:33;;;;;;;4.44;1.18;;;;;;;21.20;47.63;101021.61;460470;114;926791;-68
2021/06/20 04:17:37;;;;;;;9.41;1.30;;;;;;;21.23;47.91;101019.41;460469;114;924174;-69
2021/06/20 04:18:40;;;;;;;3.47;1.08;;;;;;;21.25;47.83;101020.78;458970;114;931992;-67
2021/06/20 04:19:44;;;;;;;3.77;0.99;;;;;;;21.27;47.69;101024.13;460379;114;932702;-67
2021/06/20 04:20:47;;;;;;;5.19;1.14;;;;;;;21.29;47.65;101021.89;461765;114;924539;-66
2021/06/20 04:21:51;;;;;;;4.42;1.21;;;;;;;21.31;47.63;101022.45;461705;114;931700;-67
2021/06/20 04:22:54;;;;;;;3.88;1.24;;;;;;;21.33;47.47;101030.52;459540;114;926911;-67
2021/06/20 04:23:57;;;;;;;2.04;1.10;;;;;;;21.34;47.47;101021.06;458958;113;924103;-67
2021/06/20 04:25:01;;;;;;;6.78;1.41;;;;;;;21.37;47.73;101023.30;458014;114;933997;-67
2021/06/20 04:26:05;;;;;;;2.86;1.28;;;;;;;21.38;47.71;101019.42;455639;114;931904;-65
2021/06/20 04:27:09;;;;;;;4.09;1.22;;;;;;;21.40;47.67;101025.50;456019;114;931819;-67
2021/06/20 04:28:16;;;;;;;4.59;1.01;;;;;;;21.43;47.66;101016.65;456149;114;931784;-67
2021/06/20 04:29:18;;;;;;;3.96;1.10;;;;;;;21.46;47.62;101018.86;456461;114;931790;-68
2021/06/20 04:30:23;;;;;;;3.49;1.28;;;;;;;21.49;47.59;101010.00;458071;114;922413;-67
2021/06/20 04:31:27;;;;;;;7.72;1.11;;;;;;;21.51;47.57;101008.59;457945;113;924657;-66
2021/06/20 04:32:30;;;;;;;6.62;1.01;;;;;;;21.54;47.54;101012.77;458322;114;931980;-67
2021/06/20 04:33:34;;;;;;;4.39;1.03;;;;;;;21.56;47.38;101016.92;457568;114;932808;-68
2021/06/20 04:34:38;;;;;;;4.72;1.11;;;;;;;21.59;47.19;101007.22;456905;113;924342;-68
2021/06/20 04:35:41;;;;;;;4.26;1.21;;;;;;;21.61;47.29;101008.59;456840;114;926613;-67
2021/06/20 04:36:45;;;;;;;2.71;1.04;;;;;;;21.64;47.46;101010.83;456418;114;924467;-68
2021/06/20 04:37:50;;;;;;;3.53;1.05;;;;;;;21.68;47.23;100999.99;455162;114;931699;-67
2021/06/20 04:38:54;;;;;;;4.44;1.09;;;;;;;21.71;47.05;101001.39;457969;114;924111;-70
2021/06/20 04:39:58;;;;;;;6.82;0.96;;;;;;;21.73;46.95;101004.70;457549;114;932462;-68
2021/06/20 04:41:03;;;;;;;7.72;1.04;;;;;;;21.77;46.85;101004.43;459698;114;931868;-69
2021/06/20 04:42:09;;;;;;;4.53;1.00;;;;;;;21.79;46.89;101004.43;456815;114;932293;-66
2021/06/20 04:43:25;;;;;;;1.69;0.81;;;;;;;21.85;46.61;101005.25;458423;114;924516;-68
2021/06/20 04:44:45;;;;;;;3.76;1.09;;;;;;;21.88;46.65;101004.72;457106;113;924131;-69
2021/06/20 04:45:49;;;;;;;3.33;0.94;;;;;;;21.93;46.64;101005.54;457102;114;924022;-67
2021/06/20 04:46:54;;;;;;;2.66;1.28;;;;;;;21.98;46.74;101004.73;455991;114;922472;-67
2021/06/20 04:47:58;;;;;;;4.58;0.95;;;;;;;22.03;46.88;101005.55;455775;114;924023;-66
2021/06/20 04:49:06;;;;;;;6.89;1.61;;;;;;;22.08;46.95;101001.09;459221;114;924679;-69
2021/06/20 04:50:11;;;;;;;4.36;0.91;;;;;;;22.13;47.10;101003.85;459596;114;922388;-68
2021/06/20 04:51:15;;;;;;;4.22;1.49;;;;;;;22.18;46.67;101006.62;456421;114;922801;-67
2021/06/20 04:52:19;;;;;;;2.28;0.80;;;;;;;22.19;46.52;101006.34;457964;114;922478;-67
2021/06/20 04:53:23;;;;;;;3.66;0.85;;;;;;;22.21;46.37;101015.24;458236;114;922589;-67
2021/06/20 04:54:26;;;;;;;3.98;0.94;;;;;;;22.24;46.37;101013.83;456758;114;922602;-68
2021/06/20 04:55:30;;;;;;;2.77;0.98;;;;;;;22.26;46.54;101015.23;456955;114;930131;-67
2021/06/20 04:56:35;;;;;;;2.73;0.78;;;;;;;22.29;46.49;101016.59;459302;114;930093;-68